Time;durP1;ratioP1;P1;durP2;ratioP2;P2;SDS_P1;SDS_P2;PMS_P1;PMS_P2;Temp;Humidity;BMP_temperature;BMP_pressure;BME280_temperature;BME280_humidity;BME280_pressure;Samples;Min_cycle;Max_cycle;Signal;HPM_P1;HPM_P2
2022/10/10 00:02:21;;;;;;;7.50;6.93;;;;;;;;;;5052295;28;20044;-91
2022/10/10 00:04:48;;;;;;;9.25;5.80;;;;;;;;;;5052402;28;20103;-92
2022/10/10 00:07:14;;;;;;;6.68;4.68;;;;;;;;;;5051945;28;20451;-92
2022/10/10 00:09:41;;;;;;;6.90;5.60;;;;;;;;;;5052085;28;20171;-92
2022/10/10 00:12:07;;;;;;;7.10;6.38;;;;;;;;;;5052433;28;20045;-92
2022/10/10 00:14:34;;;;;;;6.10;5.35;;;;;;;;;;5052393;28;20463;-93
2022/10/10 00:17:00;;;;;;;10.35;5.38;;;;;;;;;;5051910;28;20053;-92
2022/10/10 00:19:28;;;;;;;7.03;5.63;;;;;;;;;;5052284;28;20053;-92
2022/10/10 00:21:55;;;;;;;5.47;5.00;;;;;;;;;;5052333;28;20052;-92
2022/10/10 00:24:21;;;;;;;7.00;5.13;;;;;;;;;;5051793;28;20049;-91
2022/10/10 00:26:47;;;;;;;8.07;7.30;;;;;;;;;;5052469;28;20099;-91
2022/10/10 00:29:14;;;;;;;6.75;6.13;;;;;;;;;;5052293;28;20500;-92
2022/10/10 00:31:40;;;;;;;6.03;4.68;;;;;;;;;;5052482;28;20102;-92
2022/10/10 00:34:07;;;;;;;9.23;7.63;;;;;;;;;;5052406;28;20057;-93
2022/10/10 00:36:35;;;;;;;5.75;5.25;;;;;;;;;;5052531;28;20048;-91
2022/10/10 00:39:01;;;;;;;6.43;5.80;;;;;;;;;;5051984;28;20045;-91
2022/10/10 00:41:28;;;;;;;6.85;4.90;;;;;;;;;;5052077;28;20118;-92
2022/10/10 00:44:01;;;;;;;7.28;6.20;;;;;;;;;;5052328;28;20507;-92
2022/10/10 00:46:28;;;;;;;5.72;4.35;;;;;;;;;;5052219;28;20134;-92
2022/10/10 00:48:54;;;;;;;6.10;4.82;;;;;;;;;;5051932;28;20554;-91
2022/10/10 00:51:21;;;;;;;4.60;3.83;;;;;;;;;;5051395;28;20098;-90
2022/10/10 00:53:50;;;;;;;6.10;5.50;;;;;;;;;;5051698;28;20114;-90
2022/10/10 00:56:17;;;;;;;6.25;5.63;;;;;;;;;;5051538;28;20492;-91
2022/10/10 00:58:45;;;;;;;7.13;5.15;;;;;;;;;;5051834;28;20057;-91
2022/10/10 01:01:12;;;;;;;6.82;5.95;;;;;;;;;;5051700;28;20106;-90
2022/10/10 01:03:38;;;;;;;5.50;5.00;;;;;;;;;;5051650;28;20515;-90
2022/10/10 01:06:06;;;;;;;6.20;5.32;;;;;;;;;;5052962;28;20045;-90
2022/10/10 01:08:33;;;;;;;8.63;5.50;;;;;;;;;;5052839;28;20106;-93
2022/10/10 01:11:09;;;;;;;4.80;4.32;;;;;;;;;;5051934;28;20057;-92
2022/10/10 01:13:41;;;;;;;7.07;5.82;;;;;;;;;;5052470;28;20174;-93
2022/10/10 01:16:11;;;;;;;5.70;5.15;;;;;;;;;;5052074;28;20100;-92
2022/10/10 01:18:41;;;;;;;7.32;4.85;;;;;;;;;;5053269;28;20059;-93
2022/10/10 01:21:19;;;;;;;6.18;4.72;;;;;;;;;;5056014;28;20056;-93
2022/10/10 01:24:04;;;;;;;4.63;4.10;;;;;;;;;;5055096;28;20053;-93
2022/10/10 01:26:51;;;;;;;5.43;4.00;;;;;;;;;;5055550;28;20045;-93
2022/10/10 01:29:22;;;;;;;6.32;4.60;;;;;;;;;;5029665;28;20475;-92
2022/10/10 01:31:51;;;;;;;6.22;5.63;;;;;;;;;;5055472;28;20053;-92
2022/10/10 01:34:21;;;;;;;6.47;4.60;;;;;;;;;;5055204;28;20053;-92
2022/10/10 01:36:52;;;;;;;5.93;5.43;;;;;;;;;;5055317;28;20476;-92
2022/10/10 01:39:21;;;;;;;7.07;5.10;;;;;;;;;;5054772;28;20447;-94
2022/10/10 01:41:50;;;;;;;5.18;4.65;;;;;;;;;;5055920;28;20118;-94
2022/10/10 01:44:17;;;;;;;4.60;4.20;;;;;;;;;;5055485;28;20496;-93
2022/10/10 01:46:45;;;;;;;5.95;5.45;;;;;;;;;;5067728;28;20106;-93
2022/10/10 01:49:11;;;;;;;7.53;5.55;;;;;;;;;;5076097;28;20056;-94
2022/10/10 01:51:46;;;;;;;6.32;5.75;;;;;;;;;;5075524;28;20094;-93
2022/10/10 01:54:19;;;;;;;7.50;5.43;;;;;;;;;;5075290;28;20105;-94
2022/10/10 01:56:48;;;;;;;6.22;5.57;;;;;;;;;;5075610;28;20048;-94
2022/10/10 01:59:24;;;;;;;6.05;5.55;;;;;;;;;;5075730;28;20325;-92
2022/10/10 02:01:54;;;;;;;12.23;5.40;;;;;;;;;;5068496;28;20459;-92
2022/10/10 02:04:26;;;;;;;7.00;5.88;;;;;;;;;;5054932;28;20048;-92
2022/10/10 02:06:55;;;;;;;6.10;5.20;;;;;;;;;;5061121;28;20041;-92
2022/10/10 02:09:24;;;;;;;8.80;6.10;;;;;;;;;;5074339;28;20049;-91
2022/10/10 02:11:51;;;;;;;6.05;5.40;;;;;;;;;;5068330;28;20049;-92
2022/10/10 02:14:19;;;;;;;4.97;4.03;;;;;;;;;;5054615;28;20065;-92
2022/10/10 02:16:47;;;;;;;7.47;6.13;;;;;;;;;;5059788;28;20048;-92
2022/10/10 02:19:17;;;;;;;6.70;6.10;;;;;;;;;;5074990;28;20048;-92
2022/10/10 02:21:45;;;;;;;4.57;4.25;;;;;;;;;;5070051;28;20045;-93
2022/10/10 02:24:13;;;;;;;6.82;6.05;;;;;;;;;;5054172;28;20480;-93
2022/10/10 02:26:41;;;;;;;4.70;4.18;;;;;;;;;;5054560;28;20057;-93
2022/10/10 02:29:09;;;;;;;6.35;5.15;;;;;;;;;;5054776;28;20109;-92
2022/10/10 02:31:39;;;;;;;5.82;5.32;;;;;;;;;;5056032;28;20074;-92
2022/10/10 02:34:07;;;;;;;6.68;4.80;;;;;;;;;;5074429;28;20051;-92
2022/10/10 02:36:36;;;;;;;6.70;5.50;;;;;;;;;;5074031;28;20053;-93
2022/10/10 02:39:03;;;;;;;5.32;4.82;;;;;;;;;;5073997;28;20106;-93
2022/10/10 02:41:30;;;;;;;5.90;5.40;;;;;;;;;;5074614;28;20117;-94
2022/10/10 02:43:57;;;;;;;6.40;5.78;;;;;;;;;;5074214;28;20618;-94
2022/10/10 02:46:24;;;;;;;6.55;5.95;;;;;;;;;;5073371;28;20048;-91
2022/10/10 02:48:50;;;;;;;7.80;7.10;;;;;;;;;;5053952;28;20045;-91
2022/10/10 02:51:17;;;;;;;8.50;6.55;;;;;;;;;;5053950;28;20111;-94
2022/10/10 02:53:45;;;;;;;6.43;5.75;;;;;;;;;;5053319;28;20492;-91
2022/10/10 02:56:11;;;;;;;7.05;5.30;;;;;;;;;;5054393;28;20094;-93
2022/10/10 02:58:38;;;;;;;5.88;5.38;;;;;;;;;;5054393;28;20047;-93
2022/10/10 03:01:05;;;;;;;4.20;3.80;;;;;;;;;;5054567;28;20447;-92
2022/10/10 03:03:31;;;;;;;7.63;6.72;;;;;;;;;;5068322;28;20106;-92
2022/10/10 03:05:57;;;;;;;6.85;5.47;;;;;;;;;;5053273;28;20451;-91
2022/10/10 03:08:24;;;;;;;6.85;6.22;;;;;;;;;;5053300;28;20053;-91
2022/10/10 03:10:55;;;;;;;5.15;4.35;;;;;;;;;;5053959;28;20687;-91
2022/10/10 03:13:22;;;;;;;6.20;5.40;;;;;;;;;;5054979;28;20059;-92
2022/10/10 03:15:48;;;;;;;6.85;6.22;;;;;;;;;;5053646;28;20049;-93
2022/10/10 03:18:15;;;;;;;7.40;5.60;;;;;;;;;;5053953;28;20098;-93
2022/10/10 03:20:42;;;;;;;8.00;7.20;;;;;;;;;;5054421;28;20041;-93
2022/10/10 03:23:08;;;;;;;7.07;6.35;;;;;;;;;;5054064;28;20122;-92
2022/10/10 03:25:35;;;;;;;5.32;4.05;;;;;;;;;;5054667;28;20045;-93
2022/10/10 03:28:03;;;;;;;6.43;5.82;;;;;;;;;;5072837;28;20504;-92
2022/10/10 03:30:29;;;;;;;6.70;5.53;;;;;;;;;;5067586;28;20488;-93
2022/10/10 03:32:56;;;;;;;8.13;7.32;;;;;;;;;;5064753;28;20129;-91
2022/10/10 03:35:22;;;;;;;7.55;5.38;;;;;;;;;;5064623;28;20049;-91
2022/10/10 03:37:49;;;;;;;5.15;4.35;;;;;;;;;;5063125;28;20048;-91
2022/10/10 03:40:15;;;;;;;8.75;4.72;;;;;;;;;;5073473;28;20542;-92
2022/10/10 03:42:42;;;;;;;4.78;4.03;;;;;;;;;;5073018;28;20559;-92
2022/10/10 03:45:10;;;;;;;7.25;5.88;;;;;;;;;;5073812;28;20102;-92
2022/10/10 03:47:36;;;;;;;7.43;6.75;;;;;;;;;;5073902;28;20041;-93
2022/10/10 03:50:03;;;;;;;7.72;5.68;;;;;;;;;;5073428;28;20515;-93
2022/10/10 03:52:30;;;;;;;5.03;4.60;;;;;;;;;;5067493;28;20052;-92
2022/10/10 03:54:56;;;;;;;9.88;8.23;;;;;;;;;;5053796;28;20044;-93
2022/10/10 03:57:22;;;;;;;8.25;7.50;;;;;;;;;;5053339;28;20090;-93
2022/10/10 03:59:49;;;;;;;7.13;6.43;;;;;;;;;;5053525;28;20051;-93
2022/10/10 04:02:17;;;;;;;6.80;6.13;;;;;;;;;;5053095;28;20493;-93
2022/10/10 04:04:43;;;;;;;6.20;4.78;;;;;;;;;;5053112;28;20091;-94
2022/10/10 04:07:10;;;;;;;7.30;5.05;;;;;;;;;;5053317;28;20049;-92
2022/10/10 04:09:37;;;;;;;6.72;6.03;;;;;;;;;;5052954;28;20049;-91
2022/10/10 04:12:03;;;;;;;8.75;6.28;;;;;;;;;;5053387;28;20064;-92
2022/10/10 04:17:13;;;;;;;7.78;6.53;;;;;;;;;;5052759;28;20132;-94
2022/10/10 04:19:41;;;;;;;7.22;5.93;;;;;;;;;;5053309;28;20451;-94
2022/10/10 04:22:08;;;;;;;13.13;5.57;;;;;;;;;;5053214;28;20061;-93
2022/10/10 04:24:34;;;;;;;8.30;5.88;;;;;;;;;;5055841;28;20045;-94
2022/10/10 04:27:01;;;;;;;6.60;6.00;;;;;;;;;;5072933;28;20493;-94
2022/10/10 04:29:27;;;;;;;5.60;5.07;;;;;;;;;;5053207;28;20095;-94
2022/10/10 04:31:54;;;;;;;9.00;7.82;;;;;;;;;;5053126;28;20053;-93
2022/10/10 04:34:20;;;;;;;8.02;5.80;;;;;;;;;;5052755;28;20045;-93
2022/10/10 04:36:48;;;;;;;5.57;4.70;;;;;;;;;;5052871;28;20049;-93
2022/10/10 04:39:15;;;;;;;4.72;4.30;;;;;;;;;;5052665;28;20045;-92
2022/10/10 04:41:41;;;;;;;7.30;5.28;;;;;;;;;;5052644;28;20049;-94
2022/10/10 04:44:08;;;;;;;6.32;5.20;;;;;;;;;;5052930;28;20091;-93
2022/10/10 04:46:34;;;;;;;6.18;5.57;;;;;;;;;;5053037;28;20114;-94
2022/10/10 04:49:01;;;;;;;5.78;3.95;;;;;;;;;;5052711;28;20167;-93
2022/10/10 04:51:27;;;;;;;9.25;5.72;;;;;;;;;;5052292;28;20459;-92
2022/10/10 04:53:55;;;;;;;7.40;6.00;;;;;;;;;;5068889;28;20098;-92
2022/10/10 04:56:22;;;;;;;7.32;6.35;;;;;;;;;;5076323;28;20048;-92
2022/10/10 04:58:48;;;;;;;6.35;5.75;;;;;;;;;;5073272;28;20041;-92
2022/10/10 05:01:15;;;;;;;7.00;6.30;;;;;;;;;;5055956;28;20095;-92
2022/10/10 05:03:41;;;;;;;5.97;5.38;;;;;;;;;;5065993;28;20045;-92
2022/10/10 05:06:08;;;;;;;9.73;7.15;;;;;;;;;;5075745;28;20102;-91
2022/10/10 05:08:34;;;;;;;7.38;5.43;;;;;;;;;;5075654;28;20060;-91
2022/10/10 05:11:02;;;;;;;6.63;5.95;;;;;;;;;;5075839;28;20044;-91
2022/10/10 05:13:29;;;;;;;6.20;5.38;;;;;;;;;;5066084;28;20049;-92
2022/10/10 05:15:55;;;;;;;6.30;5.70;;;;;;;;;;5055164;28;20049;-91
2022/10/10 05:18:22;;;;;;;6.35;4.95;;;;;;;;;;5055566;28;20105;-91
2022/10/10 05:20:48;;;;;;;7.65;6.93;;;;;;;;;;5055557;28;20049;-92
2022/10/10 05:23:15;;;;;;;6.22;5.28;;;;;;;;;;5062698;28;20044;-92
2022/10/10 05:25:43;;;;;;;6.85;6.13;;;;;;;;;;5075440;28;20044;-92
2022/10/10 05:28:11;;;;;;;7.93;6.28;;;;;;;;;;5068857;28;20048;-91
2022/10/10 05:30:38;;;;;;;7.88;7.00;;;;;;;;;;5055294;28;20126;-92
2022/10/10 05:33:04;;;;;;;7.22;6.70;;;;;;;;;;5060221;28;20048;-92
2022/10/10 05:35:31;;;;;;;9.45;8.55;;;;;;;;;;5075358;28;20048;-91
2022/10/10 05:37:57;;;;;;;8.40;6.63;;;;;;;;;;5074771;28;20041;-92
2022/10/10 05:40:24;;;;;;;8.20;7.13;;;;;;;;;;5075050;28;20056;-92
2022/10/10 05:42:50;;;;;;;11.63;8.48;;;;;;;;;;5074838;28;20048;-91
2022/10/10 05:45:18;;;;;;;14.07;10.80;;;;;;;;;;5074815;28;20056;-92
2022/10/10 05:47:45;;;;;;;9.45;7.15;;;;;;;;;;5074785;28;20110;-91
2022/10/10 05:50:17;;;;;;;7.32;6.03;;;;;;;;;;5058699;28;20045;-91
2022/10/10 05:52:43;;;;;;;10.07;8.93;;;;;;;;;;5056047;28;20049;-92
2022/10/10 05:55:10;;;;;;;7.32;6.63;;;;;;;;;;5075069;28;20045;-92
2022/10/10 05:57:36;;;;;;;7.82;7.07;;;;;;;;;;5056862;28;20044;-92
2022/10/10 06:00:03;;;;;;;6.68;6.00;;;;;;;;;;5074867;28;20052;-92
2022/10/10 06:02:32;;;;;;;9.80;8.82;;;;;;;;;;5074129;28;20070;-92
2022/10/10 06:04:58;;;;;;;12.85;9.50;;;;;;;;;;5055097;28;20049;-91
2022/10/10 06:07:25;;;;;;;11.02;9.93;;;;;;;;;;5054066;28;20098;-92
2022/10/10 06:09:51;;;;;;;9.63;8.30;;;;;;;;;;5072648;28;20052;-92
2022/10/10 06:12:18;;;;;;;9.50;7.30;;;;;;;;;;5074254;28;20118;-92
2022/10/10 06:14:44;;;;;;;8.32;7.55;;;;;;;;;;5074283;28;20045;-92
2022/10/10 06:17:11;;;;;;;8.25;6.68;;;;;;;;;;5074713;28;20048;-91
2022/10/10 06:19:39;;;;;;;10.75;9.52;;;;;;;;;;5059257;28;20045;-92
2022/10/10 06:22:05;;;;;;;12.02;8.98;;;;;;;;;;5054444;28;20045;-92
2022/10/10 06:24:32;;;;;;;8.50;7.57;;;;;;;;;;5054817;28;20103;-92
2022/10/10 06:26:58;;;;;;;8.75;7.00;;;;;;;;;;5054843;28;20041;-93
2022/10/10 06:29:25;;;;;;;8.95;8.05;;;;;;;;;;5067244;28;20110;-91
2022/10/10 06:31:51;;;;;;;9.57;8.23;;;;;;;;;;5059661;28;20052;-92
2022/10/10 06:34:18;;;;;;;9.20;7.63;;;;;;;;;;5053937;28;20511;-91
2022/10/10 06:36:46;;;;;;;8.95;7.65;;;;;;;;;;5053911;28;20114;-91
2022/10/10 06:39:12;;;;;;;4.38;3.78;;;;;;;;;;5054104;28;20114;-92
2022/10/10 06:41:39;;;;;;;10.50;7.88;;;;;;;;;;5058706;28;20102;-92
2022/10/10 06:44:05;;;;;;;5.15;4.30;;;;;;;;;;5064042;28;20045;-91
2022/10/10 06:46:33;;;;;;;6.93;6.15;;;;;;;;;;5054646;28;20049;-91
2022/10/10 06:48:59;;;;;;;10.88;8.95;;;;;;;;;;5073507;28;20145;-91
2022/10/10 06:51:26;;;;;;;6.20;5.55;;;;;;;;;;5073435;28;20563;-91
2022/10/10 06:53:54;;;;;;;9.40;8.23;;;;;;;;;;5066291;28;20094;-92
2022/10/10 06:56:20;;;;;;;8.20;7.13;;;;;;;;;;5053188;28;20045;-90
2022/10/10 06:58:47;;;;;;;10.35;9.23;;;;;;;;;;5058761;28;20045;-90
2022/10/10 07:01:14;;;;;;;8.95;8.05;;;;;;;;;;5056943;28;20074;-90
2022/10/10 07:03:40;;;;;;;9.23;8.32;;;;;;;;;;5058316;28;20056;-91
2022/10/10 07:06:08;;;;;;;12.15;7.43;;;;;;;;;;5073050;28;20048;-91
2022/10/10 07:08:35;;;;;;;10.48;8.50;;;;;;;;;;5072700;28;20090;-91
2022/10/10 07:11:02;;;;;;;11.13;7.50;;;;;;;;;;5072617;28;20052;-91
2022/10/10 07:13:29;;;;;;;10.30;7.65;;;;;;;;;;5072314;28;20049;-92
2022/10/10 07:15:55;;;;;;;10.40;9.23;;;;;;;;;;5072530;28;20053;-91
2022/10/10 07:18:22;;;;;;;7.28;6.45;;;;;;;;;;5072248;28;20051;-93
2022/10/10 07:20:49;;;;;;;13.35;9.02;;;;;;;;;;5053892;28;20049;-90
2022/10/10 07:23:16;;;;;;;8.32;7.22;;;;;;;;;;5053131;28;20059;-92
2022/10/10 07:25:43;;;;;;;10.80;6.95;;;;;;;;;;5073034;28;20454;-91
2022/10/10 07:28:11;;;;;;;9.18;8.20;;;;;;;;;;5073296;28;20118;-91
2022/10/10 07:30:39;;;;;;;8.93;8.05;;;;;;;;;;5072619;28;20057;-91
2022/10/10 07:33:06;;;;;;;10.57;8.60;;;;;;;;;;5076137;28;20052;-89
2022/10/10 07:35:32;;;;;;;10.65;9.65;;;;;;;;;;5086570;28;20476;-91
2022/10/10 07:37:59;;;;;;;9.82;7.10;;;;;;;;;;5074676;28;20056;-92
2022/10/10 07:40:25;;;;;;;9.82;8.63;;;;;;;;;;5071872;28;20098;-92
2022/10/10 07:42:52;;;;;;;10.93;9.77;;;;;;;;;;5072852;28;20048;-93
2022/10/10 07:45:19;;;;;;;8.23;7.50;;;;;;;;;;5072199;28;20064;-93
2022/10/10 07:47:46;;;;;;;11.10;9.20;;;;;;;;;;5072276;28;20085;-92
2022/10/10 07:50:13;;;;;;;10.27;7.65;;;;;;;;;;5057746;28;20053;-93
2022/10/10 07:52:39;;;;;;;9.52;8.50;;;;;;;;;;5052959;28;20114;-92
2022/10/10 07:55:07;;;;;;;11.10;6.82;;;;;;;;;;5071755;28;20048;-92
2022/10/10 07:57:34;;;;;;;9.95;8.65;;;;;;;;;;5072518;28;20495;-93
2022/10/10 08:00:01;;;;;;;9.23;8.32;;;;;;;;;;5059511;28;20051;-92
2022/10/10 08:02:29;;;;;;;9.07;8.20;;;;;;;;;;5052260;28;20056;-92
2022/10/10 08:04:56;;;;;;;9.50;8.18;;;;;;;;;;5062650;28;20099;-92
2022/10/10 08:07:22;;;;;;;10.23;8.60;;;;;;;;;;5051513;28;20049;-92
2022/10/10 08:09:49;;;;;;;9.85;8.00;;;;;;;;;;5051518;28;20102;-91
2022/10/10 08:12:15;;;;;;;8.52;7.50;;;;;;;;;;5051161;28;20052;-92
2022/10/10 08:14:42;;;;;;;10.25;7.32;;;;;;;;;;5061984;28;20052;-91
2022/10/10 08:17:08;;;;;;;11.73;7.78;;;;;;;;;;5072127;28;20385;-91
2022/10/10 08:19:36;;;;;;;8.25;7.38;;;;;;;;;;5071837;28;20053;-92
2022/10/10 08:22:02;;;;;;;8.80;7.43;;;;;;;;;;5072433;28;20118;-91
2022/10/10 08:24:29;;;;;;;9.38;7.93;;;;;;;;;;5071106;28;20052;-92
2022/10/10 08:26:55;;;;;;;9.90;8.90;;;;;;;;;;5068192;28;20082;-91
2022/10/10 08:29:22;;;;;;;9.98;8.38;;;;;;;;;;5065018;28;20037;-91
2022/10/10 08:31:49;;;;;;;10.18;8.10;;;;;;;;;;5055965;28;20061;-91
2022/10/10 08:34:15;;;;;;;10.65;9.52;;;;;;;;;;5055440;28;20056;-92
2022/10/10 08:36:43;;;;;;;10.05;7.57;;;;;;;;;;5055631;28;20049;-90
2022/10/10 08:39:10;;;;;;;8.30;7.30;;;;;;;;;;5059533;28;20044;-92
2022/10/10 08:41:39;;;;;;;8.55;7.15;;;;;;;;;;5076471;28;20044;-91
2022/10/10 08:44:11;;;;;;;8.02;7.18;;;;;;;;;;5072801;28;20049;-91
2022/10/10 08:46:40;;;;;;;9.43;8.52;;;;;;;;;;5056299;28;20467;-90
2022/10/10 08:49:13;;;;;;;11.40;9.48;;;;;;;;;;5055493;28;20048;-90
2022/10/10 08:51:40;;;;;;;11.30;8.48;;;;;;;;;;5061690;28;20107;-90
2022/10/10 08:54:10;;;;;;;10.85;7.82;;;;;;;;;;5064266;28;20489;-90
2022/10/10 08:56:38;;;;;;;9.00;8.13;;;;;;;;;;5055565;28;20049;-90
2022/10/10 08:59:07;;;;;;;10.50;8.00;;;;;;;;;;5054855;28;20052;-90
2022/10/10 09:01:35;;;;;;;7.95;7.15;;;;;;;;;;5055436;28;20060;-89
2022/10/10 09:04:03;;;;;;;9.38;8.45;;;;;;;;;;5054841;28;20052;-90
2022/10/10 09:06:35;;;;;;;11.68;8.30;;;;;;;;;;5066581;28;20056;-90
2022/10/10 09:09:08;;;;;;;10.75;9.75;;;;;;;;;;5073580;28;20439;-90
2022/10/10 09:11:43;;;;;;;9.77;7.75;;;;;;;;;;5054954;28;20548;-90
2022/10/10 09:14:17;;;;;;;8.95;7.95;;;;;;;;;;5054704;28;20083;-90
2022/10/10 09:16:49;;;;;;;9.32;7.20;;;;;;;;;;5055125;28;20115;-90
2022/10/10 09:19:23;;;;;;;8.88;7.40;;;;;;;;;;5054852;28;20099;-90
2022/10/10 09:21:50;;;;;;;9.07;8.18;;;;;;;;;;5056263;28;20060;-89
2022/10/10 09:24:19;;;;;;;9.05;8.13;;;;;;;;;;5054662;28;20114;-90
2022/10/10 09:26:49;;;;;;;6.70;6.03;;;;;;;;;;5054589;28;20049;-89
2022/10/10 09:29:23;;;;;;;8.85;7.10;;;;;;;;;;5054130;28;20435;-89
2022/10/10 09:31:52;;;;;;;8.13;7.28;;;;;;;;;;5054331;28;20053;-89
2022/10/10 09:34:21;;;;;;;7.90;7.15;;;;;;;;;;5072479;28;20753;-89
2022/10/10 09:36:48;;;;;;;8.82;6.85;;;;;;;;;;5055435;28;20049;-90
2022/10/10 09:39:18;;;;;;;9.55;8.00;;;;;;;;;;5057846;28;20501;-90
2022/10/10 09:41:49;;;;;;;8.10;7.35;;;;;;;;;;5074392;28;20109;-90
2022/10/10 09:44:17;;;;;;;14.57;8.05;;;;;;;;;;5075014;28;20110;-89
2022/10/10 09:46:43;;;;;;;11.43;6.90;;;;;;;;;;5065457;28;20052;-91
2022/10/10 09:49:11;;;;;;;9.77;8.90;;;;;;;;;;5074591;28;20102;-92
2022/10/10 09:51:38;;;;;;;7.78;7.20;;;;;;;;;;5054481;28;20471;-90
2022/10/10 09:54:06;;;;;;;7.57;6.80;;;;;;;;;;5053941;28;20539;-90
2022/10/10 09:56:38;;;;;;;7.47;6.88;;;;;;;;;;5068535;28;20450;-90
2022/10/10 09:59:06;;;;;;;8.23;7.43;;;;;;;;;;5054016;28;20493;-89
2022/10/10 10:01:32;;;;;;;5.85;5.25;;;;;;;;;;5072898;28;20052;-90
2022/10/10 10:04:12;;;;;;;5.22;4.72;;;;;;;;;;5074241;28;20140;-89
2022/10/10 10:06:39;;;;;;;8.13;5.68;;;;;;;;;;5074012;28;20055;-91
2022/10/10 10:09:06;;;;;;;6.85;5.68;;;;;;;;;;5059930;28;20459;-89
2022/10/10 10:11:34;;;;;;;8.43;4.93;;;;;;;;;;5072300;28;20049;-90
2022/10/10 10:14:01;;;;;;;5.70;5.18;;;;;;;;;;5067950;28;20045;-90
2022/10/10 10:16:36;;;;;;;4.45;4.05;;;;;;;;;;5054107;28;20515;-91
2022/10/10 10:19:03;;;;;;;4.28;3.88;;;;;;;;;;5054005;28;20053;-90
2022/10/10 10:21:30;;;;;;;3.50;3.20;;;;;;;;;;5054105;28;20049;-91
2022/10/10 10:23:58;;;;;;;5.50;4.97;;;;;;;;;;5053801;28;20048;-90
2022/10/10 10:26:26;;;;;;;6.68;4.22;;;;;;;;;;5053970;28;20037;-90
2022/10/10 10:28:53;;;;;;;4.38;4.05;;;;;;;;;;5057594;28;20109;-92
2022/10/10 10:31:27;;;;;;;4.85;4.35;;;;;;;;;;5066619;28;20107;-91
2022/10/10 10:34:03;;;;;;;5.47;3.80;;;;;;;;;;5067828;28;20802;-91
2022/10/10 10:36:34;;;;;;;3.63;2.83;;;;;;;;;;5074330;28;20105;-89
2022/10/10 10:39:07;;;;;;;3.65;3.35;;;;;;;;;;5073732;28;20048;-91
2022/10/10 10:41:37;;;;;;;5.50;4.22;;;;;;;;;;5059991;28;20052;-92
2022/10/10 10:44:15;;;;;;;4.15;3.40;;;;;;;;;;5073626;28;20056;-92
2022/10/10 10:46:47;;;;;;;5.32;4.82;;;;;;;;;;5068480;28;20389;-91
2022/10/10 10:49:19;;;;;;;6.35;5.07;;;;;;;;;;5073423;28;20052;-91
2022/10/10 10:52:04;;;;;;;4.38;4.03;;;;;;;;;;5066510;28;20508;-91
2022/10/10 10:54:38;;;;;;;4.45;4.05;;;;;;;;;;5065805;28;20106;-93
2022/10/10 10:57:09;;;;;;;4.72;3.25;;;;;;;;;;5058988;28;20056;-91
2022/10/10 10:59:42;;;;;;;4.07;3.75;;;;;;;;;;5060076;28;20049;-90
2022/10/10 11:02:20;;;;;;;3.38;3.08;;;;;;;;;;5068993;28;20049;-90
2022/10/10 11:04:55;;;;;;;4.97;3.63;;;;;;;;;;5065634;28;20053;-89
2022/10/10 11:07:22;;;;;;;3.47;3.10;;;;;;;;;;5071802;28;20064;-91
2022/10/10 11:09:53;;;;;;;4.90;4.50;;;;;;;;;;5070314;28;20390;-87
2022/10/10 11:12:24;;;;;;;4.88;3.65;;;;;;;;;;5072462;28;20052;-88
2022/10/10 11:14:54;;;;;;;4.20;3.83;;;;;;;;;;5071810;28;20458;-90
2022/10/10 11:17:23;;;;;;;4.88;4.32;;;;;;;;;;5071564;28;20056;-88
2022/10/10 11:19:55;;;;;;;4.70;4.30;;;;;;;;;;5058225;28;20098;-89
2022/10/10 11:22:24;;;;;;;4.43;4.03;;;;;;;;;;5063832;28;20543;-90
2022/10/10 11:24:52;;;;;;;4.65;4.20;;;;;;;;;;5067130;28;20052;-88
2022/10/10 11:27:22;;;;;;;3.63;3.33;;;;;;;;;;5070251;28;20056;-88
2022/10/10 11:29:57;;;;;;;5.20;4.68;;;;;;;;;;5071561;28;20114;-89
2022/10/10 11:32:26;;;;;;;4.20;3.80;;;;;;;;;;5064322;28;20102;-90
2022/10/10 11:35:01;;;;;;;6.07;5.03;;;;;;;;;;5072908;28;20052;-89
2022/10/10 11:37:30;;;;;;;5.35;4.85;;;;;;;;;;5070648;28;20226;-88
2022/10/10 11:39:59;;;;;;;4.05;3.67;;;;;;;;;;5056289;28;20494;-90
2022/10/10 11:42:27;;;;;;;6.82;6.40;;;;;;;;;;5052800;28;20098;-90
2022/10/10 11:44:56;;;;;;;5.95;5.00;;;;;;;;;;5052390;28;20094;-90
2022/10/10 11:47:25;;;;;;;4.30;3.75;;;;;;;;;;5072034;28;20102;-88
2022/10/10 11:49:53;;;;;;;7.13;6.38;;;;;;;;;;5063601;28;20443;-89
2022/10/10 11:52:23;;;;;;;3.60;3.30;;;;;;;;;;5072405;28;20048;-91
2022/10/10 11:54:52;;;;;;;4.35;3.95;;;;;;;;;;5073011;28;20056;-91
2022/10/10 11:57:21;;;;;;;4.43;4.13;;;;;;;;;;5072559;28;20491;-90
2022/10/10 11:59:49;;;;;;;2.90;2.70;;;;;;;;;;5066325;28;20049;-90
2022/10/10 12:02:18;;;;;;;4.65;4.35;;;;;;;;;;5070444;28;20174;-91
2022/10/10 12:04:45;;;;;;;5.47;3.78;;;;;;;;;;5058472;28;20048;-91
2022/10/10 12:07:14;;;;;;;4.55;4.15;;;;;;;;;;5072448;28;20044;-92
2022/10/10 12:09:44;;;;;;;4.63;4.22;;;;;;;;;;5072675;28;20093;-90
2022/10/10 12:12:13;;;;;;;3.85;3.55;;;;;;;;;;5071993;28;20044;-91
2022/10/10 12:14:41;;;;;;;4.00;3.30;;;;;;;;;;5071735;28;20056;-92
2022/10/10 12:17:18;;;;;;;4.35;4.00;;;;;;;;;;5071410;28;20659;-90
2022/10/10 12:19:47;;;;;;;4.05;3.65;;;;;;;;;;5071519;28;20118;-90
2022/10/10 12:22:22;;;;;;;4.57;4.18;;;;;;;;;;5055419;28;20049;-91
2022/10/10 12:25:03;;;;;;;5.10;4.40;;;;;;;;;;5052246;28;20052;-92
2022/10/10 12:27:43;;;;;;;3.25;2.95;;;;;;;;;;5052107;28;20047;-91
2022/10/10 12:30:14;;;;;;;4.45;4.03;;;;;;;;;;5051989;28;20049;-91
2022/10/10 12:32:42;;;;;;;8.45;7.80;;;;;;;;;;5065286;28;20057;-90
2022/10/10 12:35:27;;;;;;;5.45;5.05;;;;;;;;;;5059438;28;20101;-91
2022/10/10 12:38:11;;;;;;;4.90;4.50;;;;;;;;;;5051582;28;20789;-92
2022/10/10 12:40:53;;;;;;;4.93;4.35;;;;;;;;;;5051690;28;20049;-90
2022/10/10 12:43:25;;;;;;;7.10;4.90;;;;;;;;;;5051590;28;20178;-91
2022/10/10 12:45:55;;;;;;;7.40;6.90;;;;;;;;;;5051694;28;20102;-92
2022/10/10 12:48:22;;;;;;;6.03;5.57;;;;;;;;;;5051527;28;20053;-90
2022/10/10 12:50:55;;;;;;;4.75;4.45;;;;;;;;;;5051742;28;20041;-91
2022/10/10 12:53:22;;;;;;;4.85;4.38;;;;;;;;;;5051863;28;20045;-91
2022/10/10 12:55:50;;;;;;;4.57;3.97;;;;;;;;;;5051312;28;20508;-91
2022/10/10 12:58:19;;;;;;;5.35;4.95;;;;;;;;;;5051536;28;20107;-92
2022/10/10 13:00:48;;;;;;;6.53;5.97;;;;;;;;;;5050569;28;20045;-92
2022/10/10 13:03:17;;;;;;;5.15;4.38;;;;;;;;;;5050334;28;20107;-90
2022/10/10 13:05:44;;;;;;;4.25;3.95;;;;;;;;;;5050398;28;20050;-92
2022/10/10 13:08:13;;;;;;;6.13;5.72;;;;;;;;;;5051228;28;20119;-91
2022/10/10 13:10:40;;;;;;;6.55;6.15;;;;;;;;;;5050926;28;20493;-93
2022/10/10 13:13:07;;;;;;;4.88;4.47;;;;;;;;;;5061453;28;20545;-92
2022/10/10 13:15:34;;;;;;;5.05;4.65;;;;;;;;;;5062231;28;20044;-92
2022/10/10 13:18:02;;;;;;;5.63;3.58;;;;;;;;;;5017632;28;20460;-91
2022/10/10 13:20:31;;;;;;;6.25;5.63;;;;;;;;;;5026408;28;20444;-91
2022/10/10 13:22:58;;;;;;;5.55;5.15;;;;;;;;;;5024119;28;20049;-91
2022/10/10 13:25:25;;;;;;;4.57;4.18;;;;;;;;;;5027562;28;20490;-93
2022/10/10 13:27:51;;;;;;;4.35;3.97;;;;;;;;;;5022688;28;20046;-92
2022/10/10 13:30:19;;;;;;;6.18;4.97;;;;;;;;;;5024277;28;20100;-91
2022/10/10 13:32:45;;;;;;;5.28;4.88;;;;;;;;;;5025162;28;20045;-91
2022/10/10 13:35:16;;;;;;;5.03;4.55;;;;;;;;;;5025518;28;20041;-92
2022/10/10 13:37:44;;;;;;;6.97;6.45;;;;;;;;;;5023468;28;20045;-92
2022/10/10 13:40:13;;;;;;;4.95;4.55;;;;;;;;;;5024537;28;20145;-91
2022/10/10 13:42:40;;;;;;;5.00;3.90;;;;;;;;;;5019514;28;20073;-92
2022/10/10 13:45:21;;;;;;;5.45;4.97;;;;;;;;;;5023340;28;20045;-89
2022/10/10 13:47:52;;;;;;;4.90;4.57;;;;;;;;;;5020750;28;20195;-92
2022/10/10 13:50:22;;;;;;;5.47;5.07;;;;;;;;;;5023429;28;20045;-92
2022/10/10 13:52:48;;;;;;;5.05;4.65;;;;;;;;;;5024826;28;20064;-91
2022/10/10 13:55:22;;;;;;;5.13;4.70;;;;;;;;;;5014766;28;20140;-91
2022/10/10 13:57:50;;;;;;;7.57;5.07;;;;;;;;;;5015751;28;20049;-91
2022/10/10 14:00:17;;;;;;;4.72;4.32;;;;;;;;;;5024817;28;20125;-92
2022/10/10 14:02:44;;;;;;;4.65;4.18;;;;;;;;;;5029455;28;20135;-90
2022/10/10 14:05:15;;;;;;;4.68;3.88;;;;;;;;;;5031741;28;20560;-90
2022/10/10 14:07:46;;;;;;;3.97;3.60;;;;;;;;;;5022793;28;20107;-91
2022/10/10 14:10:14;;;;;;;5.30;4.63;;;;;;;;;;5032123;28;20042;-92
2022/10/10 14:12:43;;;;;;;3.90;3.35;;;;;;;;;;5019713;28;20398;-90
2022/10/10 14:15:24;;;;;;;5.25;4.93;;;;;;;;;;5015776;28;20247;-91
2022/10/10 14:17:50;;;;;;;4.25;3.95;;;;;;;;;;5070971;28;20515;-90
2022/10/10 14:20:17;;;;;;;5.63;5.05;;;;;;;;;;5074208;28;20064;-90
2022/10/10 14:22:45;;;;;;;4.15;3.75;;;;;;;;;;5073472;28;20045;-90
2022/10/10 14:25:11;;;;;;;3.95;3.65;;;;;;;;;;5074062;28;20053;-91
2022/10/10 14:27:39;;;;;;;6.18;3.95;;;;;;;;;;5073505;28;20048;-91
2022/10/10 14:30:06;;;;;;;3.83;3.50;;;;;;;;;;5073866;28;20053;-91
2022/10/10 14:32:33;;;;;;;4.53;4.13;;;;;;;;;;5072955;28;20094;-90
2022/10/10 14:34:59;;;;;;;3.40;3.10;;;;;;;;;;5067027;28;20048;-89
2022/10/10 14:37:26;;;;;;;4.78;4.38;;;;;;;;;;5053483;28;20049;-90
2022/10/10 14:39:55;;;;;;;6.75;4.85;;;;;;;;;;5053637;28;20166;-91
2022/10/10 14:42:22;;;;;;;4.07;3.72;;;;;;;;;;5053314;28;20040;-91
2022/10/10 14:44:48;;;;;;;4.40;3.45;;;;;;;;;;5052983;28;20126;-90
2022/10/10 14:47:16;;;;;;;5.47;3.97;;;;;;;;;;5061459;28;20098;-90
2022/10/10 14:49:42;;;;;;;6.15;5.03;;;;;;;;;;5073517;28;20044;-91
2022/10/10 14:52:09;;;;;;;4.22;3.92;;;;;;;;;;5072800;28;20053;-90